sensor_id;sensor_type;location;lat;lon;timestamp;pressure;altitude;pressure_sealevel;temperature;humidity
4123;BME280;2075;51.062;6.920;2022-12-24T00:01:54;33751.78;;;-144.48;100.00
4123;BME280;2075;51.062;6.920;2022-12-24T00:04:40;32730.03;;;-144.48;100.00
4123;BME280;2075;51.062;6.920;2022-12-24T00:07:25;29921.88;;;-144.48;100.00
4123;BME280;2075;51.062;6.920;2022-12-24T00:10:10;28391.13;;;-144.48;100.00
4123;BME280;2075;51.062;6.920;2022-12-24T00:12:56;28646.22;;;-144.48;100.00
4123;BME280;2075;51.062;6.920;2022-12-24T00:15:42;28136.09;;;-144.48;100.00
4123;BME280;2075;51.062;6.920;2022-12-24T00:18:28;26351.25;;;-144.48;100.00
4123;BME280;2075;51.062;6.920;2022-12-24T00:21:14;24567.38;;;-144.48;100.00
4123;BME280;2075;51.062;6.920;2022-12-24T00:24:00;21766.06;;;-144.48;100.00
4123;BME280;2075;51.062;6.920;2022-12-24T00:26:47;21511.53;;;-144.48;100.00
4123;BME280;2075;51.062;6.920;2022-12-24T00:29:33;22529.81;;;-144.48;100.00
4123;BME280;2075;51.062;6.920;2022-12-24T00:32:18;20748.00;;;-144.48;100.00
4123;BME280;2075;51.062;6.920;2022-12-24T00:35:06;19984.66;;;-144.48;100.00
4123;BME280;2075;51.062;6.920;2022-12-24T00:37:51;18712.78;;;-144.48;100.00
4123;BME280;2075;51.062;6.920;2022-12-24T00:40:36;18204.19;;;-144.48;100.00
4123;BME280;2075;51.062;6.920;2022-12-24T00:43:22;18204.19;;;-144.48;100.00
4123;BME280;2075;51.062;6.920;2022-12-24T00:46:07;19730.22;;;-144.48;100.00
4123;BME280;2075;51.062;6.920;2022-12-24T00:48:53;17441.41;;;-144.48;100.00
4123;BME280;2075;51.062;6.920;2022-12-24T00:51:39;14138.13;;;-144.48;100.00
4123;BME280;2075;51.062;6.920;2022-12-24T00:54:27;10584.44;;;-144.48;100.00
4123;BME280;2075;51.062;6.920;2022-12-24T00:57:12;6527.75;;;-144.48;100.00
4123;BME280;2075;51.062;6.920;2022-12-24T00:59:58;4248.06;;;-144.48;100.00
4123;BME280;2075;51.062;6.920;2022-12-24T01:02:43;3994.88;;;-144.48;100.00
4123;BME280;2075;51.062;6.920;2022-12-24T01:05:29;3488.53;;;-144.48;100.00
4123;BME280;2075;51.062;6.920;2022-12-24T01:08:15;2729.16;;;-144.48;100.00
4123;BME280;2075;51.062;6.920;2022-12-24T01:11:01;2476.06;;;-144.48;100.00
4123;BME280;2075;51.062;6.920;2022-12-24T01:13:46;2223.00;;;-144.48;100.00
4123;BME280;2075;51.062;6.920;2022-12-24T01:16:31;2223.00;;;-144.48;100.00
4123;BME280;2075;51.062;6.920;2022-12-24T01:19:17;2729.16;;;-144.48;100.00
4123;BME280;2075;51.062;6.920;2022-12-24T01:22:02;2729.16;;;-144.48;100.00
4123;BME280;2075;51.062;6.920;2022-12-24T01:24:49;2476.06;;;-144.48;100.00
4123;BME280;2075;51.062;6.920;2022-12-24T01:27:35;1716.94;;;-144.48;100.00
4123;BME280;2075;51.062;6.920;2022-12-24T01:30:20;1463.94;;;-144.48;100.00
4123;BME280;2075;51.062;6.920;2022-12-24T01:33:06;452.09;;;-144.48;100.00
4123;BME280;2075;51.062;6.920;2022-12-24T01:35:51;-1823.38;;;-144.48;100.00
4123;BME280;2075;51.062;6.920;2022-12-24T01:38:37;-1823.38;;;-144.48;100.00
4123;BME280;2075;51.062;6.920;2022-12-24T01:41:24;-53.69;;;-144.48;100.00
4123;BME280;2075;51.062;6.920;2022-12-24T01:44:30;3488.53;;;-144.48;100.00
4123;BME280;2075;51.062;6.920;2022-12-24T01:47:17;4501.28;;;-144.48;100.00
4123;BME280;2075;51.062;6.920;2022-12-24T01:50:14;3741.69;;;-144.48;100.00
4123;BME280;2075;51.062;6.920;2022-12-24T01:53:01;5261.06;;;-144.48;100.00
4123;BME280;2075;51.062;6.920;2022-12-24T01:55:48;6274.38;;;-144.48;100.00
4123;BME280;2075;51.062;6.920;2022-12-24T01:58:39;5261.06;;;-144.48;100.00
4123;BME280;2075;51.062;6.920;2022-12-24T02:01:27;3741.69;;;-144.48;100.00
4123;BME280;2075;51.062;6.920;2022-12-24T02:04:18;2729.16;;;-144.48;100.00
4123;BME280;2075;51.062;6.920;2022-12-24T02:07:07;1969.97;;;-144.48;100.00
4123;BME280;2075;51.062;6.920;2022-12-24T02:09:55;957.97;;;-144.48;100.00
4123;BME280;2075;51.062;6.920;2022-12-24T02:12:42;1716.94;;;-144.48;100.00
4123;BME280;2075;51.062;6.920;2022-12-24T02:15:37;1463.94;;;-144.48;100.00
4123;BME280;2075;51.062;6.920;2022-12-24T02:18:32;-53.69;;;-144.48;100.00
4123;BME280;2075;51.062;6.920;2022-12-24T02:21:34;-1065.06;;;-144.48;100.00
4123;BME280;2075;51.062;6.920;2022-12-24T02:27:43;-1823.38;;;-144.48;100.00
4123;BME280;2075;51.062;6.920;2022-12-24T02:30:38;-1823.38;;;-144.48;100.00
4123;BME280;2075;51.062;6.920;2022-12-24T02:33:29;-2076.13;;;-144.48;100.00
4123;BME280;2075;51.062;6.920;2022-12-24T02:36:22;-2834.19;;;-144.48;100.00
4123;BME280;2075;51.062;6.920;2022-12-24T02:39:11;-2834.19;;;-144.48;100.00
4123;BME280;2075;51.062;6.920;2022-12-24T02:41:57;-3339.50;;;-144.48;100.00
4123;BME280;2075;51.062;6.920;2022-12-24T02:44:53;-3339.50;;;-144.48;100.00
4123;BME280;2075;51.062;6.920;2022-12-24T02:47:42;-3339.50;;;-144.48;100.00
4123;BME280;2075;51.062;6.920;2022-12-24T02:50:29;-3339.50;;;-144.48;100.00
4123;BME280;2075;51.062;6.920;2022-12-24T02:53:14;-3592.09;;;-144.48;100.00
4123;BME280;2075;51.062;6.920;2022-12-24T02:56:17;-3086.84;;;-144.48;100.00
4123;BME280;2075;51.062;6.920;2022-12-24T02:59:34;-1570.63;;;-144.48;100.00
4123;BME280;2075;51.062;6.920;2022-12-24T03:02:27;1210.94;;;-144.48;100.00
4123;BME280;2075;51.062;6.920;2022-12-24T03:05:23;2223.00;;;-144.48;100.00
4123;BME280;2075;51.062;6.920;2022-12-24T03:08:15;2729.16;;;-144.48;100.00
4123;BME280;2075;51.062;6.920;2022-12-24T03:11:08;2982.25;;;-144.48;100.00
4123;BME280;2075;51.062;6.920;2022-12-24T03:13:57;1716.94;;;-144.48;100.00
4123;BME280;2075;51.062;6.920;2022-12-24T03:16:44;452.09;;;-144.48;100.00
4123;BME280;2075;51.062;6.920;2022-12-24T03:19:30;-559.44;;;-144.48;100.00
4123;BME280;2075;51.062;6.920;2022-12-24T03:22:17;-1570.63;;;-144.48;100.00
4123;BME280;2075;51.062;6.920;2022-12-24T03:25:04;-1065.06;;;-144.48;100.00
4123;BME280;2075;51.062;6.920;2022-12-24T03:27:50;199.19;;;-144.48;100.00
4123;BME280;2075;51.062;6.920;2022-12-24T03:30:38;705.03;;;-144.48;100.00
4123;BME280;2075;51.062;6.920;2022-12-24T03:33:24;1716.94;;;-144.48;100.00
4123;BME280;2075;51.062;6.920;2022-12-24T03:36:10;1210.94;;;-144.48;100.00
4123;BME280;2075;51.062;6.920;2022-12-24T03:38:58;-2328.84;;;-144.48;100.00
4123;BME280;2075;51.062;6.920;2022-12-24T03:41:43;-5864.78;;;-144.48;100.00
4123;BME280;2075;51.062;6.920;2022-12-24T03:44:29;-7379.00;;;-144.48;100.00
4123;BME280;2075;51.062;6.920;2022-12-24T03:47:14;-7631.31;;;-144.48;100.00
4123;BME280;2075;51.062;6.920;2022-12-24T03:50:00;-8388.09;;;-144.48;100.00
4123;BME280;2075;51.062;6.920;2022-12-24T03:52:45;-8388.09;;;-144.48;100.00
4123;BME280;2075;51.062;6.920;2022-12-24T03:55:32;-7379.00;;;-144.48;100.00
4123;BME280;2075;51.062;6.920;2022-12-24T03:58:17;-6874.34;;;-144.48;100.00
4123;BME280;2075;51.062;6.920;2022-12-24T04:01:03;-6874.34;;;-144.48;100.00
4123;BME280;2075;51.062;6.920;2022-12-24T04:03:48;-5612.34;;;-144.48;100.00
4123;BME280;2075;51.062;6.920;2022-12-24T04:06:33;-5107.41;;;-144.48;100.00
4123;BME280;2075;51.062;6.920;2022-12-24T04:09:19;-3592.09;;;-144.48;100.00
4123;BME280;2075;51.062;6.920;2022-12-24T04:12:06;-2581.53;;;-144.48;100.00
4123;BME280;2075;51.062;6.920;2022-12-24T04:14:51;-2076.13;;;-144.48;100.00
4123;BME280;2075;51.062;6.920;2022-12-24T04:17:37;-1317.84;;;-144.48;100.00
4123;BME280;2075;51.062;6.920;2022-12-24T04:20:22;-812.25;;;-144.48;100.00
4123;BME280;2075;51.062;6.920;2022-12-24T04:23:08;957.97;;;-144.48;100.00
4123;BME280;2075;51.062;6.920;2022-12-24T04:25:53;2223.00;;;-144.48;100.00
4123;BME280;2075;51.062;6.920;2022-12-24T04:28:40;2982.25;;;-144.48;100.00
4123;BME280;2075;51.062;6.920;2022-12-24T04:31:26;3235.38;;;-144.48;100.00
4123;BME280;2075;51.062;6.920;2022-12-24T04:34:12;1716.94;;;-144.48;100.00
4123;BME280;2075;51.062;6.920;2022-12-24T04:36:57;1969.97;;;-144.48;100.00
4123;BME280;2075;51.062;6.920;2022-12-24T04:39:42;2476.06;;;-144.48;100.00
4123;BME280;2075;51.062;6.920;2022-12-24T04:42:28;1716.94;;;-144.48;100.00
4123;BME280;2075;51.062;6.920;2022-12-24T04:45:15;1210.94;;;-144.48;100.00
4123;BME280;2075;51.062;6.920;2022-12-24T04:48:00;-812.25;;;-144.48;100.00
4123;BME280;2075;51.062;6.920;2022-12-24T04:50:46;-2076.13;;;-144.48;100.00
4123;BME280;2075;51.062;6.920;2022-12-24T04:53:31;-2581.53;;;-144.48;100.00
4123;BME280;2075;51.062;6.920;2022-12-24T04:56:19;-3339.50;;;-144.48;100.00
4123;BME280;2075;51.062;6.920;2022-12-24T04:59:05;-4602.38;;;-144.48;100.00
4123;BME280;2075;51.062;6.920;2022-12-24T05:01:52;-5107.41;;;-144.48;100.00
4123;BME280;2075;51.062;6.920;2022-12-24T05:04:39;-6621.97;;;-144.48;100.00
4123;BME280;2075;51.062;6.920;2022-12-24T05:07:24;-7379.00;;;-144.48;100.00
4123;BME280;2075;51.062;6.920;2022-12-24T05:10:10;-8388.09;;;-144.48;100.00
4123;BME280;2075;51.062;6.920;2022-12-24T05:12:55;-9649.03;;;-144.48;100.00
4123;BME280;2075;51.062;6.920;2022-12-24T05:15:43;-10153.28;;;-144.48;100.00
4123;BME280;2075;51.062;6.920;2022-12-24T05:18:30;-9649.03;;;-144.48;100.00
4123;BME280;2075;51.062;6.920;2022-12-24T05:21:17;-9649.03;;;-144.48;100.00
4123;BME280;2075;51.062;6.920;2022-12-24T05:24:03;-9396.91;;;-144.48;100.00
4123;BME280;2075;51.062;6.920;2022-12-24T05:27:06;-8388.09;;;-144.48;100.00
4123;BME280;2075;51.062;6.920;2022-12-24T05:29:51;-7883.59;;;-144.48;100.00
4123;BME280;2075;51.062;6.920;2022-12-24T05:32:37;-7883.59;;;-144.48;100.00
4123;BME280;2075;51.062;6.920;2022-12-24T05:35:23;-6874.34;;;-144.48;100.00
4123;BME280;2075;51.062;6.920;2022-12-24T05:38:12;-6117.19;;;-144.48;100.00
4123;BME280;2075;51.062;6.920;2022-12-24T05:40:57;-5612.34;;;-144.48;100.00
4123;BME280;2075;51.062;6.920;2022-12-24T05:43:43;-5359.88;;;-144.48;100.00
4123;BME280;2075;51.062;6.920;2022-12-24T05:46:28;-5864.78;;;-144.48;100.00
4123;BME280;2075;51.062;6.920;2022-12-24T05:49:14;-5864.78;;;-144.48;100.00
4123;BME280;2075;51.062;6.920;2022-12-24T05:52:01;-5612.34;;;-144.48;100.00
4123;BME280;2075;51.062;6.920;2022-12-24T05:54:46;-6117.19;;;-144.48;100.00
4123;BME280;2075;51.062;6.920;2022-12-24T05:57:32;-6117.19;;;-144.48;100.00
4123;BME280;2075;51.062;6.920;2022-12-24T06:00:18;-6621.97;;;-144.48;100.00
4123;BME280;2075;51.062;6.920;2022-12-24T06:03:03;-6117.19;;;-144.48;100.00
4123;BME280;2075;51.062;6.920;2022-12-24T06:05:57;-5864.78;;;-144.48;100.00
4123;BME280;2075;51.062;6.920;2022-12-24T06:08:44;-5359.88;;;-144.48;100.00
4123;BME280;2075;51.062;6.920;2022-12-24T06:11:29;-5107.41;;;-144.48;100.00
4123;BME280;2075;51.062;6.920;2022-12-24T06:14:14;-5107.41;;;-144.48;100.00
4123;BME280;2075;51.062;6.920;2022-12-24T06:17:00;-5612.34;;;-144.48;100.00
4123;BME280;2075;51.062;6.920;2022-12-24T06:19:45;-5359.88;;;-144.48;100.00
4123;BME280;2075;51.062;6.920;2022-12-24T06:22:31;-4854.91;;;-144.48;100.00
4123;BME280;2075;51.062;6.920;2022-12-24T06:25:17;-4854.91;;;-144.48;100.00
4123;BME280;2075;51.062;6.920;2022-12-24T06:28:03;-5107.41;;;-144.48;100.00
4123;BME280;2075;51.062;6.920;2022-12-24T06:30:49;-5107.41;;;-144.48;100.00
4123;BME280;2075;51.062;6.920;2022-12-24T06:33:34;-5612.34;;;-144.48;100.00
4123;BME280;2075;51.062;6.920;2022-12-24T06:36:21;-7631.31;;;-144.48;100.00
4123;BME280;2075;51.062;6.920;2022-12-24T06:39:07;-8640.34;;;-144.48;100.00
4123;BME280;2075;51.062;6.920;2022-12-24T06:41:54;-8388.09;;;-144.48;100.00
4123;BME280;2075;51.062;6.920;2022-12-24T06:44:39;-8640.34;;;-144.48;100.00
4123;BME280;2075;51.062;6.920;2022-12-24T06:47:24;-8892.53;;;-144.48;100.00
4123;BME280;2075;51.062;6.920;2022-12-24T06:50:10;-8388.09;;;-144.48;100.00
4123;BME280;2075;51.062;6.920;2022-12-24T06:52:55;-7379.00;;;-144.48;100.00
4123;BME280;2075;51.062;6.920;2022-12-24T06:55:41;-6117.19;;;-144.48;100.00
4123;BME280;2075;51.062;6.920;2022-12-24T06:58:28;-5107.41;;;-144.48;100.00
4123;BME280;2075;51.062;6.920;2022-12-24T07:01:15;-3844.69;;;-144.48;100.00
4123;BME280;2075;51.062;6.920;2022-12-24T07:04:00;-2581.53;;;-144.48;100.00
4123;BME280;2075;51.062;6.920;2022-12-24T07:06:46;-559.44;;;-144.48;100.00
4123;BME280;2075;51.062;6.920;2022-12-24T07:09:31;199.19;;;-144.48;100.00
4123;BME280;2075;51.062;6.920;2022-12-24T07:12:17;1463.94;;;-144.48;100.00
4123;BME280;2075;51.062;6.920;2022-12-24T07:15:05;2729.16;;;-144.48;100.00
4123;BME280;2075;51.062;6.920;2022-12-24T07:17:50;2982.25;;;-144.48;100.00
4123;BME280;2075;51.062;6.920;2022-12-24T07:20:36;4248.06;;;-144.48;100.00
4123;BME280;2075;51.062;6.920;2022-12-24T07:23:22;3994.88;;;-144.48;100.00
4123;BME280;2075;51.062;6.920;2022-12-24T07:26:07;4501.28;;;-144.48;100.00
4123;BME280;2075;51.062;6.920;2022-12-24T07:28:53;5514.38;;;-144.48;100.00
4123;BME280;2075;51.062;6.920;2022-12-24T07:31:39;5007.78;;;-144.48;100.00
4123;BME280;2075;51.062;6.920;2022-12-24T07:34:25;5007.78;;;-144.48;100.00
4123;BME280;2075;51.062;6.920;2022-12-24T07:37:10;5261.06;;;-144.48;100.00
4123;BME280;2075;51.062;6.920;2022-12-24T07:39:55;5007.78;;;-144.48;100.00
4123;BME280;2075;51.062;6.920;2022-12-24T07:42:41;4501.28;;;-144.48;100.00
4123;BME280;2075;51.062;6.920;2022-12-24T07:45:26;2982.25;;;-144.48;100.00
4123;BME280;2075;51.062;6.920;2022-12-24T07:48:13;2729.16;;;-144.48;100.00
4123;BME280;2075;51.062;6.920;2022-12-24T07:50:58;4501.28;;;-144.48;100.00
4123;BME280;2075;51.062;6.920;2022-12-24T07:53:44;4501.28;;;-144.48;100.00
4123;BME280;2075;51.062;6.920;2022-12-24T07:56:31;3488.53;;;-144.48;100.00
4123;BME280;2075;51.062;6.920;2022-12-24T07:59:16;3488.53;;;-144.48;100.00
4123;BME280;2075;51.062;6.920;2022-12-24T08:02:01;4501.28;;;-144.48;100.00
4123;BME280;2075;51.062;6.920;2022-12-24T08:04:48;3235.38;;;-144.48;100.00
4123;BME280;2075;51.062;6.920;2022-12-24T08:07:34;2476.06;;;-144.48;100.00
4123;BME280;2075;51.062;6.920;2022-12-24T08:10:19;1969.97;;;-144.48;100.00
4123;BME280;2075;51.062;6.920;2022-12-24T08:13:04;4248.06;;;-144.48;100.00
4123;BME280;2075;51.062;6.920;2022-12-24T08:15:50;7541.47;;;-144.48;100.00
4123;BME280;2075;51.062;6.920;2022-12-24T08:18:35;7794.94;;;-144.48;100.00
4123;BME280;2075;51.062;6.920;2022-12-24T08:21:22;6527.75;;;-144.48;100.00
4123;BME280;2075;51.062;6.920;2022-12-24T08:24:07;8048.44;;;-144.48;100.00
4123;BME280;2075;51.062;6.920;2022-12-24T08:26:53;9569.81;;;-144.48;100.00
4123;BME280;2075;51.062;6.920;2022-12-24T08:29:38;9316.19;;;-144.48;100.00
4123;BME280;2075;51.062;6.920;2022-12-24T08:32:26;9062.59;;;-144.48;100.00
4123;BME280;2075;51.062;6.920;2022-12-24T08:35:11;8809.03;;;-144.48;100.00
4123;BME280;2075;51.062;6.920;2022-12-24T08:37:58;8048.44;;;-144.48;100.00
4123;BME280;2075;51.062;6.920;2022-12-24T08:40:44;9569.81;;;-144.48;100.00
4123;BME280;2075;51.062;6.920;2022-12-24T08:43:33;11853.19;;;-144.48;100.00
4123;BME280;2075;51.062;6.920;2022-12-24T08:46:18;11853.19;;;-144.48;100.00
4123;BME280;2075;51.062;6.920;2022-12-24T08:49:04;11091.88;;;-144.48;100.00
4123;BME280;2075;51.062;6.920;2022-12-24T08:51:49;9823.44;;;-144.48;100.00
4123;BME280;2075;51.062;6.920;2022-12-24T08:54:36;10330.75;;;-144.48;100.00
4123;BME280;2075;51.062;6.920;2022-12-24T08:57:21;10330.75;;;-144.48;100.00
4123;BME280;2075;51.062;6.920;2022-12-24T09:00:08;10838.16;;;-144.48;100.00
4123;BME280;2075;51.062;6.920;2022-12-24T09:02:55;11599.41;;;-144.48;100.00
4123;BME280;2075;51.062;6.920;2022-12-24T09:05:40;12107.00;;;-144.48;100.00
4123;BME280;2075;51.062;6.920;2022-12-24T09:08:26;13376.31;;;-144.48;100.00
4123;BME280;2075;51.062;6.920;2022-12-24T09:11:16;14138.13;;;-144.48;100.00
4123;BME280;2075;51.062;6.920;2022-12-24T09:14:02;14138.13;;;-144.48;100.00
4123;BME280;2075;51.062;6.920;2022-12-24T09:16:48;13630.22;;;-144.48;100.00
4123;BME280;2075;51.062;6.920;2022-12-24T09:19:33;12360.81;;;-144.48;100.00
4123;BME280;2075;51.062;6.920;2022-12-24T09:22:19;12868.53;;;-144.48;100.00
4123;BME280;2075;51.062;6.920;2022-12-24T09:25:06;12360.81;;;-144.48;100.00
4123;BME280;2075;51.062;6.920;2022-12-24T09:27:53;11853.19;;;-144.48;100.00
4123;BME280;2075;51.062;6.920;2022-12-24T09:30:38;10330.75;;;-144.48;100.00
4123;BME280;2075;51.062;6.920;2022-12-24T09:33:23;12107.00;;;-144.48;100.00
4123;BME280;2075;51.062;6.920;2022-12-24T09:36:09;12360.81;;;-144.48;100.00
4123;BME280;2075;51.062;6.920;2022-12-24T09:38:55;11599.41;;;-144.48;100.00
4123;BME280;2075;51.062;6.920;2022-12-24T09:41:46;11853.19;;;-144.48;100.00
4123;BME280;2075;51.062;6.920;2022-12-24T09:44:41;10584.44;;;-144.48;100.00
4123;BME280;2075;51.062;6.920;2022-12-24T09:47:32;8809.03;;;-144.48;100.00
4123;BME280;2075;51.062;6.920;2022-12-24T09:50:25;8809.03;;;-144.48;100.00
4123;BME280;2075;51.062;6.920;2022-12-24T09:53:20;9316.19;;;-144.48;100.00
4123;BME280;2075;51.062;6.920;2022-12-24T09:56:14;12107.00;;;-144.48;100.00
4123;BME280;2075;51.062;6.920;2022-12-24T09:59:02;13884.19;;;-144.48;100.00
4123;BME280;2075;51.062;6.920;2022-12-24T10:01:51;15408.25;;;-144.48;100.00
4123;BME280;2075;51.062;6.920;2022-12-24T10:04:37;15408.25;;;-144.48;100.00
4123;BME280;2075;51.062;6.920;2022-12-24T10:07:31;15916.41;;;-144.48;100.00
4123;BME280;2075;51.062;6.920;2022-12-24T10:10:25;16424.66;;;-144.48;100.00
4123;BME280;2075;51.062;6.920;2022-12-24T10:13:21;18458.47;;;-144.48;100.00
4123;BME280;2075;51.062;6.920;2022-12-24T10:16:19;23803.16;;;-144.48;100.00
4123;BME280;2075;51.062;6.920;2022-12-24T10:19:14;28646.22;;;-144.48;100.00
4123;BME280;2075;51.062;6.920;2022-12-24T10:22:10;31708.63;;;-144.48;100.00
4123;BME280;2075;51.062;6.920;2022-12-24T10:25:03;32730.03;;;-144.48;100.00
4123;BME280;2075;51.062;6.920;2022-12-24T10:27:54;32730.03;;;-144.48;100.00
4123;BME280;2075;51.062;6.920;2022-12-24T10:30:42;32730.03;;;-144.48;100.00
4123;BME280;2075;51.062;6.920;2022-12-24T10:33:32;33496.31;;;-144.48;100.00
4123;BME280;2075;51.062;6.920;2022-12-24T10:36:27;34262.75;;;-144.48;100.00
4123;BME280;2075;51.062;6.920;2022-12-24T10:39:17;34518.28;;;-144.48;100.00
4123;BME280;2075;51.062;6.920;2022-12-24T10:42:04;33240.88;;;-144.48;100.00
4123;BME280;2075;51.062;6.920;2022-12-24T10:44:54;32474.66;;;-144.48;100.00
4123;BME280;2075;51.062;6.920;2022-12-24T10:47:43;31963.94;;;-144.48;100.00
4123;BME280;2075;51.062;6.920;2022-12-24T10:50:31;32730.03;;;-144.48;100.00
4123;BME280;2075;51.062;6.920;2022-12-24T10:53:24;32219.28;;;-144.48;100.00
4123;BME280;2075;51.062;6.920;2022-12-24T10:56:15;31963.94;;;-144.48;100.00
4123;BME280;2075;51.062;6.920;2022-12-24T10:59:01;32730.03;;;-144.48;100.00
4123;BME280;2075;51.062;6.920;2022-12-24T11:01:48;29666.69;;;-144.48;100.00
4123;BME280;2075;51.062;6.920;2022-12-24T11:04:45;27881.03;;;-144.48;100.00
4123;BME280;2075;51.062;6.920;2022-12-24T11:07:32;29921.88;;;-144.48;100.00
4123;BME280;2075;51.062;6.920;2022-12-24T11:10:22;31963.94;;;-144.48;100.00
4123;BME280;2075;51.062;6.920;2022-12-24T11:13:21;35284.97;;;-144.48;100.00
4123;BME280;2075;51.062;6.920;2022-12-24T11:16:15;36307.50;;;-144.48;100.00
4123;BME280;2075;51.062;6.920;2022-12-24T11:19:03;39121.03;;;-144.48;100.00
4123;BME280;2075;51.062;6.920;2022-12-24T11:21:57;41936.91;;;-144.48;100.00
4123;BME280;2075;51.062;6.920;2022-12-24T11:24:43;43473.84;;;-144.48;100.00
4123;BME280;2075;51.062;6.920;2022-12-24T11:27:37;43217.66;;;-144.48;100.00
4123;BME280;2075;51.062;6.920;2022-12-24T11:30:30;45011.50;;;-144.48;100.00
4123;BME280;2075;51.062;6.920;2022-12-24T11:33:21;50655.50;;;-144.48;100.00
4123;BME280;2075;51.062;6.920;2022-12-24T11:36:11;58881.84;;;-144.48;100.00
4123;BME280;2075;51.062;6.920;2022-12-24T11:38:57;72728.28;;;-144.48;100.00
4123;BME280;2075;51.062;6.920;2022-12-24T11:41:43;76115.84;;;-144.48;98.53
4123;BME280;2075;51.062;6.920;2022-12-24T11:44:30;81170.00;;;-144.48;97.47
4123;BME280;2075;51.062;6.920;2022-12-24T11:47:15;82896.88;;;-144.48;97.27
4123;BME280;2075;51.062;6.920;2022-12-24T11:50:27;83081.16;;;-144.48;97.14
4123;BME280;2075;51.062;6.920;2022-12-24T11:53:17;81931.09;;;-144.48;97.17
4123;BME280;2075;51.062;6.920;2022-12-24T11:56:08;82983.97;;;-144.48;97.45
4123;BME280;2075;51.062;6.920;2022-12-24T11:59:01;82261.09;;;-144.48;97.34
4123;BME280;2075;51.062;6.920;2022-12-24T12:01:55;84600.31;;;-144.48;96.42
4123;BME280;2075;51.062;6.920;2022-12-24T12:04:44;87565.63;;;-144.48;95.29
4123;BME280;2075;51.062;6.920;2022-12-24T12:07:34;90478.66;;;-144.48;94.20
4123;BME280;2075;51.062;6.920;2022-12-24T12:10:23;90549.69;;;-144.48;93.84
4123;BME280;2075;51.062;6.920;2022-12-24T12:13:12;90446.19;;;-144.48;94.18
4123;BME280;2075;51.062;6.920;2022-12-24T12:16:10;91812.25;;;-144.48;92.84
4123;BME280;2075;51.062;6.920;2022-12-24T12:19:03;90740.47;;;-144.48;94.12
4123;BME280;2075;51.062;6.920;2022-12-24T12:21:49;89429.59;;;-144.48;95.16
4123;BME280;2075;51.062;6.920;2022-12-24T12:24:38;90322.41;;;-144.48;94.02
4123;BME280;2075;51.062;6.920;2022-12-24T12:27:31;91832.56;;;-144.48;92.95
4123;BME280;2075;51.062;6.920;2022-12-24T12:30:20;92084.31;;;-144.48;92.50
4123;BME280;2075;51.062;6.920;2022-12-24T12:33:14;91588.94;;;-144.48;93.16
4123;BME280;2075;51.062;6.920;2022-12-24T12:36:06;91848.81;;;-144.48;92.84
4123;BME280;2075;51.062;6.920;2022-12-24T12:38:53;91820.38;;;-144.48;92.92
4123;BME280;2075;51.062;6.920;2022-12-24T12:41:46;92575.72;;;-144.48;91.91
4123;BME280;2075;51.062;6.920;2022-12-24T12:44:59;92336.09;;;-144.48;92.59
4123;BME280;2075;51.062;6.920;2022-12-24T12:51:24;89409.31;;;-144.48;95.78
4123;BME280;2075;51.062;6.920;2022-12-24T12:54:24;86391.75;;;-144.48;96.84
4123;BME280;2075;51.062;6.920;2022-12-24T12:57:14;82111.28;;;-144.48;98.25
4123;BME280;2075;51.062;6.920;2022-12-24T13:00:07;73675.34;;;-144.48;99.42
4123;BME280;2075;51.062;6.920;2022-12-24T13:03:22;66870.13;;;-144.48;100.00
4123;BME280;2075;51.062;6.920;2022-12-24T13:06:26;59139.22;;;-144.48;100.00
4123;BME280;2075;51.062;6.920;2022-12-24T13:09:42;53995.03;;;-144.48;100.00
4123;BME280;2075;51.062;6.920;2022-12-24T13:12:49;53738.03;;;-144.48;100.00
4123;BME280;2075;51.062;6.920;2022-12-24T13:15:52;53481.06;;;-144.48;100.00
4123;BME280;2075;51.062;6.920;2022-12-24T13:18:50;56051.78;;;-144.48;100.00
4123;BME280;2075;51.062;6.920;2022-12-24T13:21:43;55280.38;;;-144.48;100.00
4123;BME280;2075;51.062;6.920;2022-12-24T13:24:30;51682.72;;;-144.48;100.00
4123;BME280;2075;51.062;6.920;2022-12-24T13:27:16;46036.97;;;-144.48;100.00
4123;BME280;2075;51.062;6.920;2022-12-24T13:30:13;42705.31;;;-144.48;100.00
4123;BME280;2075;51.062;6.920;2022-12-24T13:33:46;40400.69;;;-144.48;100.00
4123;BME280;2075;51.062;6.920;2022-12-24T13:37:02;37841.84;;;-144.48;100.00
4123;BME280;2075;51.062;6.920;2022-12-24T13:40:15;34773.81;;;-144.48;100.00
4123;BME280;2075;51.062;6.920;2022-12-24T13:43:07;33240.88;;;-144.48;100.00
4123;BME280;2075;51.062;6.920;2022-12-24T13:45:55;32219.28;;;-144.48;100.00
4123;BME280;2075;51.062;6.920;2022-12-24T13:48:41;31198.03;;;-144.48;100.00
4123;BME280;2075;51.062;6.920;2022-12-24T13:51:27;29921.88;;;-144.48;100.00
4123;BME280;2075;51.062;6.920;2022-12-24T13:54:14;33496.31;;;-144.48;100.00
4123;BME280;2075;51.062;6.920;2022-12-24T13:57:24;33240.88;;;-144.48;100.00
4123;BME280;2075;51.062;6.920;2022-12-24T14:00:38;35284.97;;;-144.48;100.00
4123;BME280;2075;51.062;6.920;2022-12-24T14:03:28;35796.19;;;-144.48;100.00
4123;BME280;2075;51.062;6.920;2022-12-24T14:06:21;34262.75;;;-144.48;100.00
4123;BME280;2075;51.062;6.920;2022-12-24T14:09:10;32730.03;;;-144.48;100.00
4123;BME280;2075;51.062;6.920;2022-12-24T14:12:31;32985.44;;;-144.48;100.00
4123;BME280;2075;51.062;6.920;2022-12-24T14:15:44;32985.44;;;-144.48;100.00
4123;BME280;2075;51.062;6.920;2022-12-24T14:18:31;37841.84;;;-144.48;100.00
4123;BME280;2075;51.062;6.920;2022-12-24T14:21:22;44242.59;;;-144.48;100.00
4123;BME280;2075;51.062;6.920;2022-12-24T14:24:14;46806.28;;;-144.48;100.00
4123;BME280;2075;51.062;6.920;2022-12-24T14:27:06;47319.28;;;-144.48;100.00
4123;BME280;2075;51.062;6.920;2022-12-24T14:30:02;46293.41;;;-144.48;100.00
4123;BME280;2075;51.062;6.920;2022-12-24T14:32:49;45011.50;;;-144.48;100.00
4123;BME280;2075;51.062;6.920;2022-12-24T14:35:37;43473.84;;;-144.48;100.00
4123;BME280;2075;51.062;6.920;2022-12-24T14:38:24;42961.47;;;-144.48;100.00
4123;BME280;2075;51.062;6.920;2022-12-24T14:44:29;36818.88;;;-144.48;100.00
4123;BME280;2075;51.062;6.920;2022-12-24T14:47:25;35540.56;;;-144.48;100.00
4123;BME280;2075;51.062;6.920;2022-12-24T14:50:29;32219.28;;;-144.48;100.00
4123;BME280;2075;51.062;6.920;2022-12-24T14:53:25;30432.28;;;-144.48;100.00
4123;BME280;2075;51.062;6.920;2022-12-24T14:56:13;25841.47;;;-144.48;100.00
4123;BME280;2075;51.062;6.920;2022-12-24T14:58:58;24312.59;;;-144.48;100.00
4123;BME280;2075;51.062;6.920;2022-12-24T15:01:47;22275.22;;;-144.48;100.00